createdAt,value
2017-12-05T00:00:46.041Z,12.10
2017-12-05T00:03:13.936Z,14.73
2017-12-05T00:05:42.077Z,17.90
2017-12-05T00:08:09.946Z,14.67
2017-12-05T00:10:37.862Z,25.20
2017-12-05T00:13:05.731Z,21.03
2017-12-05T00:15:33.581Z,14.50
2017-12-05T00:18:01.507Z,14.07
2017-12-05T00:20:29.424Z,14.50
2017-12-05T00:22:57.358Z,15.57
2017-12-05T00:25:25.231Z,14.63
2017-12-05T00:27:54.250Z,16.07
2017-12-05T00:30:22.126Z,15.73
2017-12-05T00:32:50.041Z,12.07
2017-12-05T00:35:17.884Z,20.07
2017-12-05T00:37:45.756Z,31.90
2017-12-05T00:40:13.663Z,17.47
2017-12-05T00:42:41.924Z,13.03
2017-12-05T00:45:09.784Z,22.33
2017-12-05T00:47:37.692Z,11.40
2017-12-05T00:50:05.550Z,11.73
2017-12-05T00:52:33.525Z,13.93
2017-12-05T00:55:01.628Z,14.90
2017-12-05T00:57:29.521Z,12.57
2017-12-05T00:59:57.508Z,12.27
2017-12-05T01:02:25.450Z,8.73
2017-12-05T01:04:53.336Z,12.77
2017-12-05T01:07:21.208Z,9.00
2017-12-05T01:09:49.087Z,12.70
2017-12-05T01:12:16.945Z,8.67
2017-12-05T01:14:44.781Z,16.17
2017-12-05T01:17:12.708Z,25.37
2017-12-05T01:19:40.552Z,12.03
2017-12-05T01:22:08.401Z,8.53
2017-12-05T01:24:36.288Z,12.50
2017-12-05T01:27:04.313Z,11.30
2017-12-05T01:29:32.226Z,19.60
2017-12-05T01:32:00.756Z,13.67
2017-12-05T01:34:28.687Z,17.10
2017-12-05T01:36:56.620Z,11.13
2017-12-05T01:39:24.500Z,17.07
2017-12-05T01:41:52.409Z,9.50
2017-12-05T01:44:20.389Z,15.43
2017-12-05T01:46:48.337Z,16.33
2017-12-05T01:49:16.189Z,20.37
2017-12-05T01:51:44.069Z,19.30
2017-12-05T01:54:11.996Z,25.13
2017-12-05T01:56:40.093Z,17.13
2017-12-05T01:59:07.966Z,13.77
2017-12-05T02:01:35.900Z,21.03
2017-12-05T02:04:03.764Z,18.03
2017-12-05T02:06:31.642Z,20.17
2017-12-05T02:08:59.514Z,18.80
2017-12-05T02:11:27.477Z,18.20
2017-12-05T02:13:55.324Z,20.13
2017-12-05T02:16:23.245Z,16.70
2017-12-05T02:18:51.111Z,15.63
2017-12-05T02:21:18.981Z,20.90
2017-12-05T02:23:46.858Z,26.47
2017-12-05T02:26:14.696Z,18.20
2017-12-05T02:28:42.566Z,20.33
2017-12-05T02:31:10.486Z,24.43
2017-12-05T02:33:38.387Z,14.10
2017-12-05T02:36:06.315Z,26.77
2017-12-05T02:38:34.189Z,19.40
2017-12-05T02:41:08.226Z,24.57
2017-12-05T02:43:36.120Z,21.23
2017-12-05T02:46:03.964Z,19.00
2017-12-05T02:48:31.811Z,20.53
2017-12-05T02:50:59.676Z,21.10
2017-12-05T02:53:27.516Z,19.37
2017-12-05T02:55:55.361Z,21.20
2017-12-05T02:58:23.232Z,15.17
2017-12-05T03:00:51.077Z,19.63
2017-12-05T03:03:18.968Z,18.90
2017-12-05T03:05:46.859Z,19.80
2017-12-05T03:08:14.713Z,15.73
2017-12-05T03:10:42.575Z,19.30
2017-12-05T03:13:10.449Z,20.13
2017-12-05T03:15:38.305Z,14.37
2017-12-05T03:18:05.497Z,13.67
2017-12-05T03:20:31.634Z,20.73
2017-12-05T03:22:58.474Z,14.30
2017-12-05T03:25:25.318Z,21.17
2017-12-05T03:27:51.432Z,12.93
2017-12-05T03:30:17.555Z,22.30
2017-12-05T03:32:43.709Z,22.53
2017-12-05T03:35:16.657Z,22.20
2017-12-05T03:37:42.809Z,20.33
2017-12-05T03:40:08.911Z,18.37
2017-12-05T03:42:35.093Z,17.77
2017-12-05T03:45:01.374Z,16.27
2017-12-05T03:47:27.473Z,18.93
2017-12-05T03:49:53.607Z,23.00
2017-12-05T03:52:19.732Z,19.10
2017-12-05T03:54:45.908Z,22.17
2017-12-05T03:57:12.049Z,18.73
2017-12-05T03:59:38.145Z,23.43
2017-12-05T04:02:04.985Z,20.03
2017-12-05T04:04:31.889Z,21.30
2017-12-05T04:06:58.087Z,20.67
2017-12-05T04:09:24.909Z,20.90
2017-12-05T04:11:51.025Z,18.20
2017-12-05T04:14:17.121Z,19.47
2017-12-05T04:16:43.221Z,18.60
2017-12-05T04:19:09.362Z,19.60
2017-12-05T04:21:35.450Z,23.27
2017-12-05T04:24:01.754Z,21.43
2017-12-05T04:26:28.624Z,19.60
2017-12-05T04:28:55.468Z,21.97
2017-12-05T04:31:21.586Z,22.00
2017-12-05T04:33:47.718Z,18.27
2017-12-05T04:36:13.819Z,18.23
2017-12-05T04:38:39.972Z,16.97
2017-12-05T04:41:06.104Z,17.90
2017-12-05T04:43:32.217Z,21.43
2017-12-05T04:45:58.352Z,18.03
2017-12-05T04:48:25.248Z,18.40
2017-12-05T04:50:51.392Z,17.20
2017-12-05T04:53:17.476Z,18.07
2017-12-05T04:55:44.365Z,16.37
2017-12-05T04:58:10.482Z,14.57
2017-12-05T05:00:37.332Z,12.87
2017-12-05T05:03:04.208Z,13.80
2017-12-05T05:05:31.070Z,19.47
2017-12-05T05:07:57.185Z,19.67
2017-12-05T05:10:24.071Z,18.03
2017-12-05T05:12:50.166Z,25.90
2017-12-05T05:15:16.995Z,21.33
2017-12-05T05:17:43.160Z,26.83
2017-12-05T05:20:09.986Z,25.70
2017-12-05T05:22:36.117Z,32.10
2017-12-05T05:25:02.413Z,28.90
2017-12-05T05:27:28.529Z,25.53
2017-12-05T05:29:55.373Z,24.40
2017-12-05T05:32:21.533Z,31.00
2017-12-05T05:34:48.370Z,27.57
2017-12-05T05:37:14.460Z,31.37
2017-12-05T05:39:40.673Z,29.10
2017-12-05T05:42:06.802Z,31.70
2017-12-05T05:44:32.888Z,22.13
2017-12-05T05:46:59.030Z,28.07
2017-12-05T05:49:25.189Z,21.80
2017-12-05T05:51:51.285Z,26.20
2017-12-05T05:54:17.415Z,38.83
2017-12-05T05:56:43.537Z,30.00
2017-12-05T05:59:09.624Z,28.90
2017-12-05T06:01:35.734Z,26.77
2017-12-05T06:04:01.843Z,25.17
2017-12-05T06:06:27.933Z,21.77
2017-12-05T06:08:54.102Z,22.57
2017-12-05T06:11:20.193Z,18.43
2017-12-05T06:13:46.373Z,26.10
2017-12-05T06:16:12.514Z,22.70
2017-12-05T06:18:38.687Z,18.77
2017-12-05T06:21:04.765Z,18.03
2017-12-05T06:23:30.883Z,20.00
2017-12-05T06:25:56.984Z,17.30
2017-12-05T06:28:23.823Z,14.77
2017-12-05T06:30:49.961Z,14.63
2017-12-05T06:33:16.798Z,19.37
2017-12-05T06:35:43.092Z,15.93
2017-12-05T06:38:09.213Z,17.60
2017-12-05T06:40:36.098Z,21.03
2017-12-05T06:43:02.197Z,13.07
2017-12-05T06:45:29.112Z,16.30
2017-12-05T06:47:55.243Z,17.50
2017-12-05T06:50:21.406Z,14.80
2017-12-05T06:52:47.538Z,15.57
2017-12-05T06:55:13.657Z,17.63
2017-12-05T06:57:39.792Z,17.70
2017-12-05T07:00:05.928Z,17.87
2017-12-05T07:02:32.021Z,14.90
2017-12-05T07:04:58.874Z,14.13
2017-12-05T07:07:25.739Z,11.80
2017-12-05T07:09:52.607Z,16.33
2017-12-05T07:12:18.699Z,13.17
2017-12-05T07:14:44.822Z,12.20
2017-12-05T07:17:10.923Z,11.70
2017-12-05T07:19:37.041Z,9.77
2017-12-05T07:22:03.974Z,12.07
2017-12-05T07:24:30.205Z,11.90
2017-12-05T07:26:56.332Z,8.40
2017-12-05T07:29:22.473Z,14.60
2017-12-05T07:31:48.550Z,21.60
2017-12-05T07:34:15.500Z,12.20
2017-12-05T07:36:41.657Z,14.30
2017-12-05T07:39:08.557Z,9.90
2017-12-05T07:41:34.712Z,10.80
2017-12-05T07:44:00.831Z,12.03
2017-12-05T07:46:26.955Z,8.80
2017-12-05T07:48:53.038Z,8.90
2017-12-05T07:51:19.165Z,9.53
2017-12-05T07:53:45.358Z,8.50
2017-12-05T07:56:11.475Z,7.27
2017-12-05T07:58:38.425Z,5.33
2017-12-05T08:01:05.265Z,4.87
2017-12-05T08:03:31.371Z,12.13
2017-12-05T08:05:57.554Z,4.60
2017-12-05T08:08:24.392Z,9.17
2017-12-05T08:10:50.489Z,5.30
2017-12-05T08:13:16.633Z,5.10
2017-12-05T08:15:42.718Z,4.50
2017-12-05T08:18:09.250Z,7.37
2017-12-05T08:20:35.386Z,6.70
2017-12-05T08:23:01.577Z,4.70
2017-12-05T08:25:27.873Z,3.83
2017-12-05T08:27:54.040Z,3.40
2017-12-05T08:30:20.881Z,3.43
2017-12-05T08:32:47.025Z,5.90
2017-12-05T08:35:13.197Z,9.93
2017-12-05T08:37:39.312Z,4.30
2017-12-05T08:40:05.449Z,5.70
2017-12-05T08:42:31.645Z,6.10
2017-12-05T08:44:57.752Z,4.10
2017-12-05T08:47:24.088Z,4.37
2017-12-05T08:49:50.245Z,6.90
2017-12-05T08:52:16.369Z,7.17
2017-12-05T08:54:42.465Z,3.43
2017-12-05T08:57:08.562Z,6.63
2017-12-05T08:59:34.644Z,17.30
2017-12-05T09:02:01.467Z,13.97
2017-12-05T09:04:27.621Z,5.63
2017-12-05T09:06:53.712Z,3.83
2017-12-05T09:09:19.809Z,4.30
2017-12-05T09:11:45.937Z,3.10
2017-12-05T09:14:12.052Z,4.90
2017-12-05T09:16:38.153Z,4.90
2017-12-05T09:19:04.422Z,5.47
2017-12-05T09:21:30.501Z,5.60
2017-12-05T09:23:57.376Z,4.10
2017-12-05T09:26:23.500Z,6.00
2017-12-05T09:28:50.384Z,5.30
2017-12-05T09:31:16.464Z,4.53
2017-12-05T09:33:44.479Z,5.93
2017-12-05T09:36:12.356Z,11.13
2017-12-05T09:38:41.218Z,8.60
2017-12-05T09:41:09.116Z,4.47
2017-12-05T09:43:37.045Z,5.33
2017-12-05T09:46:05.440Z,4.90
2017-12-05T09:48:33.337Z,4.60
2017-12-05T09:51:01.232Z,7.80
2017-12-05T09:53:29.100Z,6.17
2017-12-05T09:55:58.057Z,5.37
2017-12-05T09:58:25.933Z,3.30
2017-12-05T10:00:53.914Z,6.43
2017-12-05T10:03:21.996Z,8.73
2017-12-05T10:05:50.008Z,11.70
2017-12-05T10:08:18.299Z,5.53
2017-12-05T10:10:46.481Z,11.53
2017-12-05T10:13:14.509Z,6.93
2017-12-05T10:15:42.434Z,16.43
2017-12-05T10:18:10.608Z,6.03
2017-12-05T10:20:38.501Z,9.93
2017-12-05T10:23:06.704Z,8.90
2017-12-05T10:25:35.364Z,7.27
2017-12-05T10:28:03.256Z,5.83
2017-12-05T10:30:31.831Z,8.63
2017-12-05T10:32:59.809Z,7.40
2017-12-05T10:35:27.898Z,8.93
2017-12-05T10:37:55.794Z,9.43
2017-12-05T10:40:23.703Z,14.03
2017-12-05T10:42:51.598Z,14.17
2017-12-05T10:45:19.681Z,10.57
2017-12-05T10:47:48.373Z,18.53
2017-12-05T10:50:17.436Z,6.87
2017-12-05T10:52:45.405Z,12.50
2017-12-05T10:55:13.566Z,12.63
2017-12-05T10:57:41.737Z,14.70
2017-12-05T11:00:09.648Z,8.90
2017-12-05T11:02:37.523Z,7.30
2017-12-05T11:05:05.452Z,18.13
2017-12-05T11:07:33.350Z,11.23
2017-12-05T11:10:01.290Z,12.70
2017-12-05T11:12:29.181Z,8.83
2017-12-05T11:14:57.065Z,10.80
2017-12-05T11:17:25.039Z,7.43
2017-12-05T11:19:52.961Z,25.47
2017-12-05T11:22:20.857Z,7.30
2017-12-05T11:24:48.741Z,7.73
2017-12-05T11:27:16.650Z,13.17
2017-12-05T11:29:44.497Z,10.10
2017-12-05T11:32:12.382Z,8.53
2017-12-05T11:34:40.299Z,7.70
2017-12-05T11:37:08.169Z,9.90
2017-12-05T11:39:36.025Z,10.23
2017-12-05T11:42:03.912Z,7.03
2017-12-05T11:44:31.760Z,7.23
2017-12-05T11:46:59.669Z,7.80
2017-12-05T11:49:27.553Z,10.17
2017-12-05T11:51:55.450Z,6.90
2017-12-05T11:54:23.361Z,7.50
2017-12-05T11:56:51.265Z,8.03
2017-12-05T11:59:19.132Z,5.20
2017-12-05T12:01:46.998Z,6.03
2017-12-05T12:04:14.916Z,6.50
2017-12-05T12:06:42.773Z,8.70
2017-12-05T12:09:10.626Z,7.50
2017-12-05T12:11:38.496Z,7.60
2017-12-05T12:14:06.331Z,9.27
2017-12-05T12:16:34.203Z,5.33
2017-12-05T12:19:02.108Z,7.80
2017-12-05T12:21:29.963Z,6.70
2017-12-05T12:23:57.877Z,10.07
2017-12-05T12:26:25.793Z,7.30
2017-12-05T12:28:53.684Z,15.00
2017-12-05T12:31:21.549Z,9.70
2017-12-05T12:33:49.503Z,9.27
2017-12-05T12:36:17.354Z,8.90
2017-12-05T12:38:45.269Z,10.43
2017-12-05T12:41:13.182Z,11.03
2017-12-05T12:43:41.056Z,11.00
2017-12-05T12:46:08.921Z,9.40
2017-12-05T12:48:36.813Z,15.80
2017-12-05T12:51:04.847Z,12.20
2017-12-05T12:53:32.752Z,7.07
2017-12-05T12:56:00.661Z,8.70
2017-12-05T12:58:28.533Z,9.40
2017-12-05T13:00:56.430Z,12.57
2017-12-05T13:03:24.302Z,8.67
2017-12-05T13:05:52.141Z,11.40
2017-12-05T13:08:19.993Z,13.63
2017-12-05T13:10:47.990Z,13.07
2017-12-05T13:13:15.837Z,15.63
2017-12-05T13:15:43.766Z,17.07
2017-12-05T13:18:11.669Z,16.53
2017-12-05T13:20:39.513Z,14.57
2017-12-05T13:23:07.361Z,11.93
2017-12-05T13:25:35.244Z,17.47
2017-12-05T13:28:03.129Z,12.00
2017-12-05T13:30:30.993Z,13.87
2017-12-05T13:32:58.885Z,13.97
2017-12-05T13:35:26.797Z,13.50
2017-12-05T13:37:54.640Z,18.60
2017-12-05T13:40:22.512Z,16.20
2017-12-05T13:42:50.392Z,22.10
2017-12-05T13:45:18.415Z,19.33
2017-12-05T13:47:46.356Z,13.70
2017-12-05T13:50:14.291Z,16.80
2017-12-05T13:52:42.148Z,17.03
2017-12-05T13:55:10.015Z,16.33
2017-12-05T13:57:37.976Z,17.30
2017-12-05T14:00:05.979Z,16.43
2017-12-05T14:02:34.145Z,14.87
2017-12-05T14:05:02.496Z,17.37
2017-12-05T14:07:30.380Z,17.73
2017-12-05T14:09:58.394Z,15.23
2017-12-05T14:12:26.269Z,19.20
2017-12-05T14:14:54.202Z,17.10
2017-12-05T14:17:22.072Z,15.60
2017-12-05T14:19:49.992Z,20.07
2017-12-05T14:22:17.885Z,18.00
2017-12-05T14:24:45.778Z,13.40
2017-12-05T14:27:13.663Z,15.37
2017-12-05T14:29:41.537Z,15.50
2017-12-05T14:32:09.413Z,13.77
2017-12-05T14:34:37.305Z,17.37
2017-12-05T14:37:05.198Z,18.33
2017-12-05T14:39:33.427Z,20.93
2017-12-05T14:42:01.506Z,21.13
2017-12-05T14:44:29.726Z,25.50
2017-12-05T14:46:57.794Z,25.73
2017-12-05T14:49:25.805Z,18.80
2017-12-05T14:51:53.668Z,21.60
2017-12-05T14:54:21.528Z,24.90
2017-12-05T14:56:50.401Z,22.50
2017-12-05T14:59:18.333Z,20.80
2017-12-05T15:01:46.229Z,23.73
2017-12-05T15:04:14.137Z,18.87
2017-12-05T15:06:42.001Z,27.17
2017-12-05T15:09:10.602Z,21.67
2017-12-05T15:11:38.519Z,29.20
2017-12-05T15:14:06.441Z,20.17
2017-12-05T15:16:34.309Z,25.20
2017-12-05T15:19:02.238Z,25.73
2017-12-05T15:21:30.121Z,20.83
2017-12-05T15:23:57.986Z,22.80
2017-12-05T15:26:25.936Z,21.80
2017-12-05T15:28:53.781Z,18.80
2017-12-05T15:31:21.741Z,18.80
2017-12-05T15:33:49.648Z,28.70
2017-12-05T15:36:17.538Z,27.07
2017-12-05T15:38:45.494Z,23.97
2017-12-05T15:41:13.421Z,22.07
2017-12-05T15:43:41.320Z,19.63
2017-12-05T15:46:09.201Z,25.10
2017-12-05T15:48:37.167Z,21.40
2017-12-05T15:51:05.062Z,19.70
2017-12-05T15:53:33.011Z,21.90
2017-12-05T15:56:00.980Z,23.07
2017-12-05T15:58:28.941Z,20.60
2017-12-05T16:00:56.817Z,21.37
2017-12-05T16:03:24.708Z,23.63
2017-12-05T16:05:52.753Z,25.97
2017-12-05T16:08:20.621Z,17.77
2017-12-05T16:10:48.600Z,19.33
2017-12-05T16:13:17.291Z,20.53
2017-12-05T16:15:45.194Z,22.07
2017-12-05T16:18:13.138Z,17.73
2017-12-05T16:20:41.057Z,21.87
2017-12-05T16:23:09.059Z,18.33
2017-12-05T16:25:36.990Z,18.00
2017-12-05T16:28:04.883Z,17.27
2017-12-05T16:30:32.852Z,21.30
2017-12-05T16:33:00.766Z,17.13
2017-12-05T16:35:29.565Z,16.33
2017-12-05T16:37:57.433Z,14.73
2017-12-05T16:40:25.334Z,19.30
2017-12-05T16:42:53.237Z,18.93
2017-12-05T16:45:21.160Z,19.40
2017-12-05T16:47:49.054Z,15.93
2017-12-05T16:50:16.947Z,18.57
2017-12-05T16:52:44.826Z,16.13
2017-12-05T16:55:12.729Z,15.50
2017-12-05T16:57:40.603Z,14.80
2017-12-05T17:00:08.481Z,17.70
2017-12-05T17:02:36.622Z,21.60
2017-12-05T17:05:04.570Z,15.70
2017-12-05T17:07:32.483Z,18.90
2017-12-05T17:10:00.390Z,17.63
2017-12-05T17:12:28.353Z,15.03
2017-12-05T17:14:56.273Z,18.03
2017-12-05T17:17:24.143Z,17.60
2017-12-05T17:19:52.033Z,23.07
2017-12-05T17:22:19.921Z,17.40
2017-12-05T17:24:47.948Z,18.43
2017-12-05T17:27:15.829Z,19.10
2017-12-05T17:29:43.770Z,24.57
2017-12-05T17:32:11.630Z,24.93
2017-12-05T17:34:39.522Z,26.40
2017-12-05T17:37:07.449Z,21.00
2017-12-05T17:39:35.361Z,21.53
2017-12-05T17:42:03.231Z,27.70
2017-12-05T17:44:31.158Z,26.07
2017-12-05T17:46:59.016Z,22.03
2017-12-05T17:49:27.073Z,27.90
2017-12-05T17:51:54.844Z,22.83
2017-12-05T17:54:22.707Z,21.60
2017-12-05T17:56:50.624Z,27.17
2017-12-05T17:59:18.504Z,26.50
2017-12-05T18:01:46.362Z,27.13
2017-12-05T18:04:14.247Z,23.73
2017-12-05T18:06:42.132Z,24.37
2017-12-05T18:09:10.129Z,34.47
2017-12-05T18:11:38.086Z,25.73
2017-12-05T18:14:06.123Z,27.50
2017-12-05T18:16:34.136Z,33.23
2017-12-05T18:19:02.035Z,27.27
2017-12-05T18:21:29.876Z,25.73
2017-12-05T18:23:57.758Z,29.93
2017-12-05T18:26:25.636Z,24.37
2017-12-05T18:28:53.493Z,30.63
2017-12-05T18:31:21.483Z,31.97
2017-12-05T18:33:49.373Z,27.73
2017-12-05T18:36:17.245Z,38.23
2017-12-05T18:38:45.117Z,34.30
2017-12-05T18:41:13.010Z,29.83
2017-12-05T18:43:41.894Z,32.00
2017-12-05T18:46:10.845Z,37.40
2017-12-05T18:48:38.759Z,31.83
2017-12-05T18:51:06.850Z,33.73
2017-12-05T18:53:34.752Z,30.80
2017-12-05T18:56:02.703Z,36.60
2017-12-05T18:58:30.613Z,32.03
2017-12-05T19:00:58.498Z,34.30
2017-12-05T19:03:26.367Z,29.53
2017-12-05T19:05:54.238Z,29.63
2017-12-05T19:08:22.097Z,29.43
2017-12-05T19:10:49.979Z,37.27
2017-12-05T19:13:17.838Z,30.47
2017-12-05T19:15:45.683Z,26.33
2017-12-05T19:18:13.749Z,35.50
2017-12-05T19:20:41.784Z,32.40
2017-12-05T19:23:09.678Z,38.47
2017-12-05T19:25:38.229Z,32.10
2017-12-05T19:28:06.741Z,33.87
2017-12-05T19:30:35.191Z,34.47
2017-12-05T19:33:05.679Z,33.87
2017-12-05T19:35:34.524Z,35.93
2017-12-05T19:38:03.566Z,28.33
2017-12-05T19:40:31.692Z,30.30
2017-12-05T19:42:59.816Z,31.83
2017-12-05T19:45:27.890Z,27.50
2017-12-05T19:47:55.847Z,24.43
2017-12-05T19:50:23.758Z,31.43
2017-12-05T19:52:51.693Z,27.83
2017-12-05T19:55:19.612Z,27.53
2017-12-05T19:57:47.493Z,26.27
2017-12-05T20:00:15.715Z,35.13
2017-12-05T20:02:44.287Z,29.93
2017-12-05T20:05:12.237Z,30.07
2017-12-05T20:07:40.134Z,33.70
2017-12-05T20:10:08.103Z,26.00
2017-12-05T20:12:36.056Z,29.07
2017-12-05T20:15:04.003Z,29.53
2017-12-05T20:17:31.922Z,30.60
2017-12-05T20:19:59.844Z,32.47
2017-12-05T20:22:27.846Z,28.47
2017-12-05T20:24:55.726Z,29.40
2017-12-05T20:27:23.634Z,32.90
2017-12-05T20:29:53.139Z,25.87
2017-12-05T20:32:22.268Z,30.93
2017-12-05T20:34:50.236Z,29.57
2017-12-05T20:37:18.875Z,31.43
2017-12-05T20:39:46.804Z,28.17
2017-12-05T20:42:14.736Z,27.27
2017-12-05T20:44:42.759Z,30.83
2017-12-05T20:47:11.761Z,30.03
2017-12-05T20:49:39.643Z,31.73
2017-12-05T20:52:07.489Z,27.50
2017-12-05T20:54:35.426Z,29.20
2017-12-05T20:57:03.308Z,33.00
2017-12-05T20:59:31.187Z,30.53
2017-12-05T21:02:01.089Z,33.37
2017-12-05T21:04:28.962Z,29.40
2017-12-05T21:06:56.821Z,28.87
2017-12-05T21:09:24.710Z,30.97
2017-12-05T21:11:52.592Z,32.70
2017-12-05T21:14:20.504Z,31.27
2017-12-05T21:16:49.493Z,29.40
2017-12-05T21:19:19.017Z,33.27
2017-12-05T21:21:46.965Z,34.60
2017-12-05T21:24:14.857Z,31.93
2017-12-05T21:26:42.721Z,34.67
2017-12-05T21:29:10.606Z,27.90
2017-12-05T21:31:38.531Z,31.90
2017-12-05T21:34:06.453Z,32.93
2017-12-05T21:36:34.300Z,29.67
2017-12-05T21:39:02.205Z,30.23
2017-12-05T21:41:30.236Z,30.97
2017-12-05T21:43:58.289Z,34.30
2017-12-05T21:46:26.342Z,34.53
2017-12-05T21:48:54.239Z,32.57
2017-12-05T21:51:22.285Z,38.93
2017-12-05T21:53:50.564Z,36.43
2017-12-05T21:56:18.454Z,34.77
2017-12-05T21:58:46.300Z,33.37
2017-12-05T22:01:14.554Z,37.37
2017-12-05T22:03:42.633Z,34.43
2017-12-05T22:06:12.332Z,38.90
2017-12-05T22:08:43.313Z,30.03
2017-12-05T22:11:11.303Z,32.03
2017-12-05T22:13:39.197Z,28.10
2017-12-05T22:16:07.301Z,28.97
2017-12-05T22:18:35.694Z,33.93
2017-12-05T22:21:03.672Z,32.10
2017-12-05T22:23:32.162Z,29.00
2017-12-05T22:26:00.070Z,31.97
2017-12-05T22:28:27.978Z,35.60
2017-12-05T22:30:55.900Z,32.00
2017-12-05T22:33:25.708Z,33.63
2017-12-05T22:35:55.584Z,33.60
2017-12-05T22:38:23.693Z,32.97
2017-12-05T22:40:51.542Z,38.90
2017-12-05T22:43:20.716Z,36.90
2017-12-05T22:45:48.702Z,33.37
2017-12-05T22:48:16.637Z,32.70
2017-12-05T22:50:44.547Z,35.93
2017-12-05T22:53:12.475Z,44.20
2017-12-05T22:55:41.212Z,32.97
2017-12-05T22:58:09.115Z,36.60
2017-12-05T23:00:37.082Z,33.50
2017-12-05T23:03:04.933Z,35.17
2017-12-05T23:05:32.997Z,42.33
2017-12-05T23:08:09.047Z,39.73
2017-12-05T23:10:37.082Z,36.57
2017-12-05T23:13:05.230Z,33.97
2017-12-05T23:15:33.448Z,39.40
2017-12-05T23:18:01.898Z,37.63
2017-12-05T23:20:30.672Z,32.50
2017-12-05T23:22:59.079Z,35.23
2017-12-05T23:25:26.938Z,35.33
2017-12-05T23:27:54.809Z,44.53
2017-12-05T23:30:22.681Z,35.27
2017-12-05T23:32:51.284Z,35.10
2017-12-05T23:35:20.040Z,31.90
2017-12-05T23:37:48.005Z,37.53
2017-12-05T23:40:16.082Z,31.20
2017-12-05T23:42:44.072Z,31.67
2017-12-05T23:45:12.340Z,32.63
2017-12-05T23:47:40.424Z,31.50
2017-12-05T23:50:08.309Z,31.43
2017-12-05T23:52:36.371Z,28.40
2017-12-05T23:55:04.268Z,23.77
2017-12-05T23:57:32.190Z,30.53
